Time;durP1;ratioP1;P1;durP2;ratioP2;P2;SDS_P1;SDS_P2;PMS_P1;PMS_P2;Temp;Humidity;BMP_temperature;BMP_pressure;BME280_temperature;BME280_humidity;BME280_pressure;Samples;Min_cycle;Max_cycle;Signal;HPM_P1;HPM_P2
2021/12/23 00:01:36;;;;;;;22.88;11.13;;;;;;;;;;5024878;28;20026;-56
2021/12/23 00:04:04;;;;;;;20.98;10.30;;;;;;;;;;5027009;28;20486;-58
2021/12/23 00:06:32;;;;;;;26.33;10.63;;;;;;;;;;5012371;28;20017;-58
2021/12/23 00:09:00;;;;;;;21.65;10.35;;;;;;;;;;5028342;28;20270;-60
2021/12/23 00:11:28;;;;;;;20.08;9.93;;;;;;;;;;5029749;28;20037;-59
2021/12/23 00:14:05;;;;;;;20.58;10.70;;;;;;;;;;5030175;28;20026;-59
2021/12/23 00:19:37;;;;;;;22.17;11.20;;;;;;;;;;5029944;28;20052;-60
2021/12/23 00:24:49;;;;;;;19.80;10.75;;;;;;;;;;5027529;28;20110;-58
2021/12/23 00:27:15;;;;;;;21.88;10.43;;;;;;;;;;5025765;28;20390;-57
2021/12/23 00:29:43;;;;;;;24.77;11.02;;;;;;;;;;5025849;28;20132;-56
2021/12/23 00:32:10;;;;;;;24.58;10.77;;;;;;;;;;5027344;28;20025;-57
2021/12/23 00:34:36;;;;;;;23.38;11.23;;;;;;;;;;5006609;28;20025;-58
2021/12/23 00:37:04;;;;;;;19.30;10.68;;;;;;;;;;5041698;28;20037;-55
2021/12/23 00:39:30;;;;;;;21.95;11.43;;;;;;;;;;5048633;28;20029;-57
2021/12/23 00:42:06;;;;;;;21.05;10.90;;;;;;;;;;5051654;28;21339;-62
2021/12/23 00:44:36;;;;;;;21.45;10.95;;;;;;;;;;5050329;28;20083;-59
2021/12/23 00:47:03;;;;;;;21.65;11.18;;;;;;;;;;5050329;28;20029;-58
2021/12/23 00:49:28;;;;;;;22.08;10.85;;;;;;;;;;5052227;28;20025;-54
2021/12/23 00:51:54;;;;;;;21.15;11.27;;;;;;;;;;5050872;28;20454;-54
2021/12/23 00:54:20;;;;;;;22.92;11.45;;;;;;;;;;5051672;28;20116;-61
2021/12/23 00:56:49;;;;;;;18.75;10.70;;;;;;;;;;5049466;28;20890;-56
2021/12/23 00:59:14;;;;;;;21.58;11.10;;;;;;;;;;5049567;28;20029;-58
2021/12/23 01:01:40;;;;;;;25.45;11.02;;;;;;;;;;5051590;28;20033;-57
2021/12/23 01:04:05;;;;;;;25.45;10.95;;;;;;;;;;5030043;28;20101;-59
2021/12/23 01:06:31;;;;;;;25.60;11.23;;;;;;;;;;5049755;28;20024;-58
2021/12/23 01:08:56;;;;;;;20.27;10.93;;;;;;;;;;5049277;28;20088;-56
2021/12/23 01:11:22;;;;;;;22.30;10.77;;;;;;;;;;5051260;28;20036;-54
2021/12/23 01:14:00;;;;;;;24.27;11.48;;;;;;;;;;5050549;28;20044;-57
2021/12/23 01:16:48;;;;;;;22.92;11.40;;;;;;;;;;5053061;28;20083;-58
2021/12/23 01:19:14;;;;;;;25.48;11.40;;;;;;;;;;5049880;28;20036;-54
2021/12/23 01:21:39;;;;;;;22.38;11.55;;;;;;;;;;5032105;28;20025;-56
2021/12/23 01:24:08;;;;;;;22.85;11.95;;;;;;;;;;5052620;28;20044;-55
2021/12/23 01:26:34;;;;;;;21.60;10.48;;;;;;;;;;5051092;28;20041;-55
2021/12/23 01:28:59;;;;;;;22.25;11.27;;;;;;;;;;5055480;28;20032;-56
2021/12/23 01:31:27;;;;;;;24.15;11.07;;;;;;;;;;5051276;28;20408;-58
2021/12/23 01:33:53;;;;;;;22.13;10.90;;;;;;;;;;5053308;28;20025;-59
2021/12/23 01:36:18;;;;;;;23.55;11.15;;;;;;;;;;5043189;28;20018;-57
2021/12/23 01:38:44;;;;;;;21.52;10.57;;;;;;;;;;5027612;28;20029;-56
2021/12/23 01:41:10;;;;;;;21.55;11.02;;;;;;;;;;5012458;28;20037;-57
2021/12/23 01:43:36;;;;;;;20.45;11.38;;;;;;;;;;5027421;28;20076;-56
2021/12/23 01:46:01;;;;;;;23.40;11.32;;;;;;;;;;5028455;28;20038;-55
2021/12/23 01:48:27;;;;;;;24.88;11.27;;;;;;;;;;5026856;28;20033;-55
2021/12/23 01:50:52;;;;;;;23.08;10.68;;;;;;;;;;5028058;28;20018;-54
2021/12/23 01:53:18;;;;;;;20.20;11.75;;;;;;;;;;5027325;28;20091;-53
2021/12/23 01:55:44;;;;;;;19.73;10.95;;;;;;;;;;5029511;28;20036;-53
2021/12/23 01:58:12;;;;;;;22.15;11.52;;;;;;;;;;5026411;28;20988;-58
2021/12/23 02:00:41;;;;;;;21.77;10.48;;;;;;;;;;5028123;28;20103;-60
2021/12/23 02:03:06;;;;;;;21.90;10.73;;;;;;;;;;5025199;28;20525;-60
2021/12/23 02:05:32;;;;;;;24.23;11.30;;;;;;;;;;5025577;28;20037;-59
2021/12/23 02:07:59;;;;;;;24.35;10.55;;;;;;;;;;5027178;28;20041;-60
2021/12/23 02:10:27;;;;;;;19.20;10.00;;;;;;;;;;5026696;28;20052;-60
2021/12/23 02:12:52;;;;;;;24.00;11.10;;;;;;;;;;5025890;28;20410;-59
2021/12/23 02:15:19;;;;;;;19.05;10.75;;;;;;;;;;5010247;28;20048;-61
2021/12/23 02:17:46;;;;;;;18.70;10.55;;;;;;;;;;5026196;28;20075;-59
2021/12/23 02:20:21;;;;;;;23.20;10.10;;;;;;;;;;5026175;28;20022;-59
2021/12/23 02:22:47;;;;;;;22.48;11.30;;;;;;;;;;5010990;28;20417;-60
2021/12/23 02:25:13;;;;;;;21.45;10.75;;;;;;;;;;5026163;28;20033;-60
2021/12/23 02:27:40;;;;;;;21.80;11.13;;;;;;;;;;5023465;28;20386;-61
2021/12/23 02:30:09;;;;;;;21.05;11.05;;;;;;;;;;5026041;28;20017;-60
2021/12/23 02:32:35;;;;;;;19.00;10.50;;;;;;;;;;5024725;28;20112;-60
2021/12/23 02:35:01;;;;;;;19.58;10.48;;;;;;;;;;5025019;28;20132;-61
2021/12/23 02:37:26;;;;;;;20.60;9.98;;;;;;;;;;5024741;28;20064;-60
2021/12/23 02:39:51;;;;;;;20.58;10.77;;;;;;;;;;5025509;28;20361;-60
2021/12/23 02:42:17;;;;;;;21.52;11.32;;;;;;;;;;5024823;28;20044;-59
2021/12/23 02:44:42;;;;;;;19.73;10.85;;;;;;;;;;5041895;28;20120;-60
2021/12/23 02:47:08;;;;;;;23.58;11.07;;;;;;;;;;5026069;28;20112;-57
2021/12/23 02:49:33;;;;;;;21.55;10.73;;;;;;;;;;5024753;28;20108;-60
2021/12/23 02:51:59;;;;;;;16.40;10.57;;;;;;;;;;5025556;28;20021;-60
2021/12/23 02:54:24;;;;;;;24.25;11.52;;;;;;;;;;5008518;28;20033;-60
2021/12/23 02:56:50;;;;;;;21.73;10.68;;;;;;;;;;5030203;28;20405;-61
2021/12/23 02:59:15;;;;;;;20.25;10.98;;;;;;;;;;5023669;28;20041;-59
2021/12/23 03:01:41;;;;;;;19.67;10.70;;;;;;;;;;5025873;28;20029;-60
2021/12/23 03:04:06;;;;;;;18.98;10.60;;;;;;;;;;5023338;28;20022;-58
2021/12/23 03:06:31;;;;;;;22.00;11.65;;;;;;;;;;5022694;28;20535;-61
2021/12/23 03:08:59;;;;;;;19.23;10.30;;;;;;;;;;5025613;28;20025;-60
2021/12/23 03:11:26;;;;;;;23.10;11.55;;;;;;;;;;5025069;28;20022;-61
2021/12/23 03:13:52;;;;;;;23.02;10.68;;;;;;;;;;5025149;28;20486;-60
2021/12/23 03:16:21;;;;;;;22.40;10.63;;;;;;;;;;5024972;28;20068;-61
2021/12/23 03:18:46;;;;;;;21.20;11.27;;;;;;;;;;5026722;28;20033;-60
2021/12/23 03:21:12;;;;;;;21.50;11.05;;;;;;;;;;5024422;28;20047;-61
2021/12/23 03:23:37;;;;;;;19.95;11.32;;;;;;;;;;5027368;28;20025;-61
2021/12/23 03:26:04;;;;;;;21.73;11.50;;;;;;;;;;5026732;28;20569;-60
2021/12/23 03:28:30;;;;;;;25.25;11.55;;;;;;;;;;5026645;28;20045;-61
2021/12/23 03:30:56;;;;;;;24.23;11.70;;;;;;;;;;5024166;28;20037;-56
2021/12/23 03:33:22;;;;;;;26.20;11.63;;;;;;;;;;5026089;28;20021;-60
2021/12/23 03:35:48;;;;;;;26.23;12.45;;;;;;;;;;5023863;28;20029;-61
2021/12/23 03:38:15;;;;;;;29.70;13.55;;;;;;;;;;5025047;28;20038;-61
2021/12/23 03:40:41;;;;;;;25.05;12.68;;;;;;;;;;5028526;28;20108;-60
2021/12/23 03:43:06;;;;;;;28.08;12.73;;;;;;;;;;5026645;28;20039;-60
2021/12/23 03:45:32;;;;;;;29.33;14.18;;;;;;;;;;5030514;28;20029;-55
2021/12/23 03:47:57;;;;;;;30.95;14.60;;;;;;;;;;5012614;28;20030;-57
2021/12/23 03:50:24;;;;;;;30.10;13.70;;;;;;;;;;5029159;28;20032;-55
2021/12/23 03:52:50;;;;;;;28.77;14.50;;;;;;;;;;5028802;28;20492;-58
2021/12/23 03:55:17;;;;;;;27.55;14.25;;;;;;;;;;5013168;28;20245;-59
2021/12/23 03:57:42;;;;;;;29.50;14.10;;;;;;;;;;5029674;28;20029;-58
2021/12/23 04:00:12;;;;;;;33.58;14.15;;;;;;;;;;5028372;28;20028;-55
2021/12/23 04:02:38;;;;;;;31.55;14.88;;;;;;;;;;5028379;28;20083;-58
2021/12/23 04:05:06;;;;;;;34.80;14.70;;;;;;;;;;5027942;28;20030;-57
2021/12/23 04:07:32;;;;;;;29.20;14.05;;;;;;;;;;5029454;28;20545;-55
2021/12/23 04:09:58;;;;;;;32.83;14.20;;;;;;;;;;5028218;28;20436;-59
2021/12/23 04:12:23;;;;;;;27.38;13.82;;;;;;;;;;5029348;28;20062;-55
2021/12/23 04:14:49;;;;;;;28.15;14.25;;;;;;;;;;5028500;28;20036;-58
2021/12/23 04:17:14;;;;;;;28.10;13.70;;;;;;;;;;5027205;28;20029;-57
2021/12/23 04:19:39;;;;;;;29.80;12.98;;;;;;;;;;5027676;28;20511;-59
2021/12/23 04:22:05;;;;;;;30.65;14.45;;;;;;;;;;5029259;28;20087;-59
2021/12/23 04:24:30;;;;;;;29.85;15.48;;;;;;;;;;5028822;28;20039;-58
2021/12/23 04:26:56;;;;;;;31.90;15.00;;;;;;;;;;5028440;28;20029;-58
2021/12/23 04:29:23;;;;;;;26.73;13.77;;;;;;;;;;5029419;28;20034;-59
2021/12/23 04:31:49;;;;;;;34.25;15.05;;;;;;;;;;5026084;28;20032;-57
2021/12/23 04:34:14;;;;;;;31.75;14.55;;;;;;;;;;5028246;28;20029;-59
2021/12/23 04:36:39;;;;;;;32.70;15.20;;;;;;;;;;5026199;28;20037;-58
2021/12/23 04:39:05;;;;;;;37.38;15.45;;;;;;;;;;5028623;28;20052;-55
2021/12/23 04:41:33;;;;;;;32.72;14.73;;;;;;;;;;5026414;28;20088;-58
2021/12/23 04:43:59;;;;;;;26.48;14.07;;;;;;;;;;5026897;28;20468;-58
2021/12/23 04:46:24;;;;;;;36.15;14.98;;;;;;;;;;5029538;28;20065;-53
2021/12/23 04:48:50;;;;;;;30.20;14.98;;;;;;;;;;5027792;28;20025;-58
2021/12/23 04:51:18;;;;;;;30.27;15.90;;;;;;;;;;5012101;28;20227;-58
2021/12/23 04:53:44;;;;;;;32.90;15.95;;;;;;;;;;5027755;28;20040;-58
2021/12/23 04:56:10;;;;;;;37.67;16.30;;;;;;;;;;5029703;28;20237;-57
2021/12/23 04:58:36;;;;;;;35.25;16.13;;;;;;;;;;5027256;28;20072;-58
2021/12/23 05:01:03;;;;;;;34.60;16.48;;;;;;;;;;5027344;28;20029;-58
2021/12/23 05:03:29;;;;;;;36.80;16.95;;;;;;;;;;5013757;28;20365;-58
2021/12/23 05:05:54;;;;;;;31.92;15.30;;;;;;;;;;5028709;28;20122;-58
2021/12/23 05:08:21;;;;;;;34.70;15.90;;;;;;;;;;5026645;28;20041;-52
2021/12/23 05:10:46;;;;;;;30.85;16.02;;;;;;;;;;5011657;28;20033;-50
2021/12/23 05:13:12;;;;;;;37.47;16.70;;;;;;;;;;5025285;28;20087;-51
2021/12/23 05:15:37;;;;;;;37.90;16.77;;;;;;;;;;5010512;28;20389;-48
2021/12/23 05:18:04;;;;;;;31.85;16.05;;;;;;;;;;5026264;28;20074;-50
2021/12/23 05:20:30;;;;;;;33.65;17.42;;;;;;;;;;5026965;28;20108;-49
2021/12/23 05:22:55;;;;;;;33.40;15.88;;;;;;;;;;5026270;28;20112;-48
2021/12/23 05:25:21;;;;;;;32.90;16.45;;;;;;;;;;5026269;28;20653;-50
2021/12/23 05:27:47;;;;;;;31.75;14.85;;;;;;;;;;5026489;28;20121;-50
2021/12/23 05:30:16;;;;;;;36.60;16.05;;;;;;;;;;5027756;28;20045;-51
2021/12/23 05:32:42;;;;;;;37.38;16.65;;;;;;;;;;5026685;28;20559;-51
2021/12/23 05:35:09;;;;;;;30.75;15.68;;;;;;;;;;5027538;28;20087;-49
2021/12/23 05:37:34;;;;;;;35.95;16.65;;;;;;;;;;5026149;28;20025;-52
2021/12/23 05:39:59;;;;;;;31.20;15.18;;;;;;;;;;5027353;28;20439;-46
2021/12/23 05:42:25;;;;;;;31.88;16.17;;;;;;;;;;5023335;28;20561;-51
2021/12/23 05:44:50;;;;;;;31.13;15.02;;;;;;;;;;5025591;28;20393;-49
2021/12/23 05:47:16;;;;;;;30.77;15.85;;;;;;;;;;5026761;28;20413;-49
2021/12/23 05:49:41;;;;;;;39.22;17.30;;;;;;;;;;5027593;28;20025;-49
2021/12/23 05:52:06;;;;;;;32.72;15.90;;;;;;;;;;5026084;28;20603;-50
2021/12/23 05:54:32;;;;;;;39.63;16.73;;;;;;;;;;5025777;28;20044;-47
2021/12/23 05:57:01;;;;;;;33.28;16.60;;;;;;;;;;5026040;28;20051;-47
2021/12/23 05:59:29;;;;;;;30.77;14.43;;;;;;;;;;5025701;28;20029;-49
2021/12/23 06:01:54;;;;;;;29.08;15.10;;;;;;;;;;5026556;28;20025;-47
2021/12/23 06:04:19;;;;;;;33.33;15.57;;;;;;;;;;5011895;28;20059;-50
2021/12/23 06:06:45;;;;;;;33.75;15.35;;;;;;;;;;5026123;28;20374;-52
2021/12/23 06:09:10;;;;;;;35.80;16.27;;;;;;;;;;5010531;28;20025;-50
2021/12/23 06:11:35;;;;;;;29.17;15.55;;;;;;;;;;5025117;28;20021;-51
2021/12/23 06:14:01;;;;;;;30.83;15.73;;;;;;;;;;5024929;28;20164;-51
2021/12/23 06:16:26;;;;;;;31.42;15.95;;;;;;;;;;5025214;28;20223;-46
2021/12/23 06:18:51;;;;;;;33.75;15.27;;;;;;;;;;5010546;28;20030;-48
2021/12/23 06:21:17;;;;;;;34.78;15.88;;;;;;;;;;5024737;28;20087;-47
2021/12/23 06:23:42;;;;;;;31.55;15.77;;;;;;;;;;5025071;28;20488;-48
2021/12/23 06:26:08;;;;;;;39.67;16.98;;;;;;;;;;5027632;28;20820;-46
2021/12/23 06:28:33;;;;;;;31.20;15.30;;;;;;;;;;5025661;28;20025;-50
2021/12/23 06:30:58;;;;;;;36.50;15.68;;;;;;;;;;5025131;28;20025;-52
2021/12/23 06:33:24;;;;;;;36.25;17.13;;;;;;;;;;5025542;28;20560;-47
2021/12/23 06:35:50;;;;;;;34.20;16.83;;;;;;;;;;5024731;28;20136;-48
2021/12/23 06:38:16;;;;;;;37.65;17.38;;;;;;;;;;5025015;28;20036;-50
2021/12/23 06:40:41;;;;;;;34.58;16.50;;;;;;;;;;5022494;28;20417;-48
2021/12/23 06:43:07;;;;;;;36.90;16.98;;;;;;;;;;5024217;28;20041;-46
2021/12/23 06:45:32;;;;;;;33.40;17.08;;;;;;;;;;5024803;28;20037;-47
2021/12/23 06:47:58;;;;;;;34.15;15.48;;;;;;;;;;5024494;28;20768;-47
2021/12/23 06:50:23;;;;;;;33.42;16.05;;;;;;;;;;5026809;28;20053;-50
2021/12/23 06:52:49;;;;;;;41.25;17.67;;;;;;;;;;5024414;28;21219;-47
2021/12/23 06:55:16;;;;;;;34.60;16.08;;;;;;;;;;5024072;28;20038;-50
2021/12/23 06:57:43;;;;;;;40.70;17.05;;;;;;;;;;5024392;28;20440;-50
2021/12/23 07:00:14;;;;;;;39.72;17.05;;;;;;;;;;5024727;28;20585;-49
2021/12/23 07:02:40;;;;;;;35.10;17.05;;;;;;;;;;5025504;28;20481;-48
2021/12/23 07:05:07;;;;;;;37.53;17.27;;;;;;;;;;5025449;28;20139;-52
2021/12/23 07:07:40;;;;;;;35.78;17.17;;;;;;;;;;5024900;28;20497;-48
2021/12/23 07:10:06;;;;;;;;;;;;;;;;;;5025803;28;20126;-44
2021/12/23 07:12:32;;;;;;;35.55;16.08;;;;;;;;;;5026016;28;20056;-51
2021/12/23 07:14:57;;;;;;;37.92;16.50;;;;;;;;;;5028290;28;20123;-47
2021/12/23 07:17:22;;;;;;;38.35;17.55;;;;;;;;;;5030034;28;20025;-51
2021/12/23 07:19:48;;;;;;;40.95;17.63;;;;;;;;;;5014641;28;20359;-50
2021/12/23 07:22:13;;;;;;;38.20;17.88;;;;;;;;;;5026671;28;20538;-50
2021/12/23 07:24:41;;;;;;;36.85;18.05;;;;;;;;;;5029627;28;20048;-46
2021/12/23 07:27:06;;;;;;;38.50;18.35;;;;;;;;;;5028001;28;20024;-49
2021/12/23 07:29:32;;;;;;;36.35;17.60;;;;;;;;;;5026703;28;20033;-51
2021/12/23 07:31:58;;;;;;;41.42;18.48;;;;;;;;;;5029351;28;20112;-50
2021/12/23 07:34:24;;;;;;;38.90;17.83;;;;;;;;;;5028911;28;20032;-53
2021/12/23 07:36:49;;;;;;;46.45;20.58;;;;;;;;;;5027809;28;20060;-48
2021/12/23 07:39:15;;;;;;;45.72;19.50;;;;;;;;;;5009874;28;20108;-48
2021/12/23 07:41:40;;;;;;;40.03;17.70;;;;;;;;;;5028772;28;20142;-50
2021/12/23 07:44:07;;;;;;;43.97;19.10;;;;;;;;;;5028275;28;20385;-50
2021/12/23 07:46:35;;;;;;;42.72;18.65;;;;;;;;;;5029001;28;20060;-50
2021/12/23 07:49:01;;;;;;;48.90;20.38;;;;;;;;;;5025949;28;20029;-47
2021/12/23 07:51:27;;;;;;;42.40;17.75;;;;;;;;;;5028502;28;20026;-52
2021/12/23 07:53:53;;;;;;;46.25;18.98;;;;;;;;;;5029209;28;20037;-49
2021/12/23 07:56:19;;;;;;;42.47;18.30;;;;;;;;;;5032262;28;20026;-48
2021/12/23 07:58:45;;;;;;;36.85;18.02;;;;;;;;;;5027147;28;20041;-50
2021/12/23 08:01:10;;;;;;;42.47;19.63;;;;;;;;;;5026756;28;20037;-54
2021/12/23 08:03:36;;;;;;;43.50;19.73;;;;;;;;;;5013250;28;20044;-51
2021/12/23 08:06:01;;;;;;;45.80;18.67;;;;;;;;;;5027048;28;20160;-46
2021/12/23 08:08:27;;;;;;;38.25;18.85;;;;;;;;;;5028950;28;20387;-49
2021/12/23 08:10:52;;;;;;;43.85;19.08;;;;;;;;;;5028573;28;20048;-51
2021/12/23 08:13:18;;;;;;;46.33;20.00;;;;;;;;;;5027554;28;20079;-52
2021/12/23 08:15:43;;;;;;;44.30;18.30;;;;;;;;;;5024564;28;20048;-52
2021/12/23 08:18:09;;;;;;;42.25;19.30;;;;;;;;;;5027255;28;20033;-49
2021/12/23 08:20:35;;;;;;;40.45;18.05;;;;;;;;;;5027875;28;20065;-53
2021/12/23 08:23:01;;;;;;;45.15;19.17;;;;;;;;;;5025644;28;20029;-48
2021/12/23 08:25:27;;;;;;;40.80;18.50;;;;;;;;;;5024838;28;20029;-47
2021/12/23 08:27:53;;;;;;;46.90;19.83;;;;;;;;;;5026375;28;20482;-47
2021/12/23 08:30:19;;;;;;;41.00;18.50;;;;;;;;;;5026474;28;20029;-50
2021/12/23 08:32:47;;;;;;;39.03;17.48;;;;;;;;;;5027558;28;21326;-49
2021/12/23 08:35:14;;;;;;;43.08;18.65;;;;;;;;;;5009310;28;20026;-48
2021/12/23 08:37:44;;;;;;;42.65;18.98;;;;;;;;;;5045113;28;20075;-52
2021/12/23 08:40:09;;;;;;;43.40;19.98;;;;;;;;;;5052144;28;20028;-53
2021/12/23 08:42:35;;;;;;;39.53;18.17;;;;;;;;;;5048283;28;20895;-49
2021/12/23 08:45:04;;;;;;;40.63;18.92;;;;;;;;;;5050198;28;20029;-48
2021/12/23 08:47:30;;;;;;;40.90;18.90;;;;;;;;;;5034295;28;20119;-51
2021/12/23 08:49:56;;;;;;;42.92;19.38;;;;;;;;;;5050241;28;20025;-46
2021/12/23 08:52:22;;;;;;;44.67;18.63;;;;;;;;;;5047796;28;20040;-51
2021/12/23 08:54:48;;;;;;;43.00;19.63;;;;;;;;;;5031419;28;20484;-54
2021/12/23 08:57:13;;;;;;;38.75;17.70;;;;;;;;;;5050389;28;20037;-51
2021/12/23 08:59:39;;;;;;;41.05;19.33;;;;;;;;;;5048444;28;20119;-50
2021/12/23 09:02:06;;;;;;;41.15;17.55;;;;;;;;;;5052109;28;20070;-51
2021/12/23 09:04:32;;;;;;;43.80;18.45;;;;;;;;;;5049535;28;20036;-48
2021/12/23 09:06:57;;;;;;;40.45;19.10;;;;;;;;;;5051734;28;20040;-47
2021/12/23 09:09:24;;;;;;;37.13;17.77;;;;;;;;;;5034314;28;20059;-52
2021/12/23 09:11:51;;;;;;;41.28;17.92;;;;;;;;;;5049169;28;20044;-46
2021/12/23 09:14:17;;;;;;;40.78;17.63;;;;;;;;;;5033748;28;20122;-48
2021/12/23 09:16:43;;;;;;;39.47;17.70;;;;;;;;;;5049665;28;20048;-48
2021/12/23 09:19:09;;;;;;;36.03;16.80;;;;;;;;;;5050326;28;20024;-46
2021/12/23 09:21:37;;;;;;;39.72;16.77;;;;;;;;;;5033291;28;20032;-46
2021/12/23 09:24:03;;;;;;;36.88;17.23;;;;;;;;;;5048546;28;20029;-49
2021/12/23 09:26:33;;;;;;;43.58;18.42;;;;;;;;;;5049906;28;20029;-51
2021/12/23 09:29:10;;;;;;;44.50;17.58;;;;;;;;;;5053305;28;20370;-49
2021/12/23 09:34:19;;;;;;;38.92;17.58;;;;;;;;;;5051941;28;20080;-52
2021/12/23 09:36:45;;;;;;;44.22;18.90;;;;;;;;;;5040125;28;20072;-51
2021/12/23 09:39:12;;;;;;;40.15;18.40;;;;;;;;;;5023618;28;20017;-49
2021/12/23 09:41:39;;;;;;;33.67;17.10;;;;;;;;;;5025672;28;20037;-47
2021/12/23 09:44:07;;;;;;;39.78;18.52;;;;;;;;;;5026477;28;20032;-51
2021/12/23 09:46:36;;;;;;;37.15;18.00;;;;;;;;;;5026166;28;20060;-48
2021/12/23 09:49:05;;;;;;;39.85;19.30;;;;;;;;;;5027168;28;20382;-50
2021/12/23 09:51:32;;;;;;;43.53;19.23;;;;;;;;;;5025755;28;20599;-52
2021/12/23 09:54:06;;;;;;;40.28;18.23;;;;;;;;;;5026223;28;20025;-47
2021/12/23 09:56:32;;;;;;;38.13;18.35;;;;;;;;;;5025802;28;20040;-51
2021/12/23 09:58:59;;;;;;;43.78;19.13;;;;;;;;;;5023646;28;20060;-50
2021/12/23 10:01:29;;;;;;;41.35;19.02;;;;;;;;;;5025274;28;20057;-50
2021/12/23 10:03:55;;;;;;;43.45;18.60;;;;;;;;;;5024181;28;20076;-49
2021/12/23 10:06:23;;;;;;;40.42;18.85;;;;;;;;;;5024891;28;20021;-52
2021/12/23 10:08:49;;;;;;;40.08;18.38;;;;;;;;;;5025028;28;20358;-47
2021/12/23 10:30:35;;;;;;;48.83;19.83;;;;;;;;;;5010288;28;20555;-48
2021/12/23 10:33:27;;;;;;;41.75;18.92;;;;;;;;;;5023466;28;20037;-52
2021/12/23 10:38:39;;;;;;;39.75;17.27;;;;;;;;;;5021886;28;20227;-49
2021/12/23 10:41:14;;;;;;;40.20;18.48;;;;;;;;;;5024962;28;20374;-51
2021/12/23 10:43:44;;;;;;;37.72;18.30;;;;;;;;;;5027827;28;20056;-51
2021/12/23 10:46:21;;;;;;;38.03;18.17;;;;;;;;;;5024298;28;20021;-47
2021/12/23 10:49:04;;;;;;;37.78;17.80;;;;;;;;;;5026105;28;20022;-46
2021/12/23 10:52:07;;;;;;;39.08;17.88;;;;;;;;;;5022483;28;20397;-46
2021/12/23 11:00:20;;;;;;;41.03;18.65;;;;;;;;;;5023620;28;20094;-53
2021/12/23 11:03:06;;;;;;;33.80;17.48;;;;;;;;;;5026527;28;20534;-51
2021/12/23 11:05:38;;;;;;;43.67;18.00;;;;;;;;;;5024280;28;20045;-51
2021/12/23 11:38:11;;;;;;;40.15;17.85;;;;;;;;;;5025017;28;20466;-48
2021/12/23 11:43:26;;;;;;;37.67;18.08;;;;;;;;;;5024660;28;20041;-46
2021/12/23 11:45:51;;;;;;;43.35;18.70;;;;;;;;;;5025093;28;20401;-46
2021/12/23 11:48:17;;;;;;;37.47;17.88;;;;;;;;;;5024832;28;20037;-52
2021/12/23 11:53:27;;;;;;;50.33;19.50;;;;;;;;;;5009678;28;20068;-49
2021/12/23 11:55:54;;;;;;;38.92;18.17;;;;;;;;;;5024013;28;20029;-48
2021/12/23 11:58:25;;;;;;;43.38;18.08;;;;;;;;;;5025367;28;20029;-48
2021/12/23 12:01:13;;;;;;;42.15;19.38;;;;;;;;;;5026760;28;20458;-50
2021/12/23 12:03:52;;;;;;;46.83;17.95;;;;;;;;;;5027911;28;20040;-54
2021/12/23 12:06:25;;;;;;;41.08;18.10;;;;;;;;;;5028619;28;20025;-53
2021/12/23 12:08:55;;;;;;;41.80;18.63;;;;;;;;;;5029142;28;20022;-46
2021/12/23 12:11:24;;;;;;;37.45;18.33;;;;;;;;;;5028171;28;20026;-51
2021/12/23 12:13:49;;;;;;;41.17;18.70;;;;;;;;;;5027125;28;20102;-49
2021/12/23 12:16:47;;;;;;;35.95;16.92;;;;;;;;;;5028178;28;20116;-52
2021/12/23 12:19:12;;;;;;;36.60;17.85;;;;;;;;;;4993237;28;20040;-49
2021/12/23 12:21:42;;;;;;;36.33;18.35;;;;;;;;;;5025675;28;20056;-53
2021/12/23 12:24:16;;;;;;;38.88;18.80;;;;;;;;;;5028118;28;20038;-51
2021/12/23 12:26:56;;;;;;;39.22;18.23;;;;;;;;;;5028348;28;20068;-52
2021/12/23 12:29:33;;;;;;;35.45;16.58;;;;;;;;;;5026966;28;20025;-51
2021/12/23 12:31:58;;;;;;;36.28;16.80;;;;;;;;;;5029379;28;20074;-51
2021/12/23 12:34:32;;;;;;;35.75;16.17;;;;;;;;;;5027518;28;20444;-50
2021/12/23 12:36:59;;;;;;;35.10;16.35;;;;;;;;;;5024888;28;20104;-48
2021/12/23 12:39:31;;;;;;;34.58;17.05;;;;;;;;;;5027624;28;20083;-49
2021/12/23 12:42:10;;;;;;;35.83;16.67;;;;;;;;;;5011141;28;20033;-52
2021/12/23 12:45:00;;;;;;;36.75;17.67;;;;;;;;;;5027918;28;20497;-51
2021/12/23 12:47:30;;;;;;;33.97;17.98;;;;;;;;;;5023087;28;20123;-52
2021/12/23 12:50:32;;;;;;;40.83;17.92;;;;;;;;;;5026343;28;20084;-52
2021/12/23 12:53:04;;;;;;;38.53;16.52;;;;;;;;;;4985416;28;20050;-49
2021/12/23 12:55:30;;;;;;;36.72;17.33;;;;;;;;;;5020167;28;20041;-50
2021/12/23 12:57:58;;;;;;;38.17;18.40;;;;;;;;;;5024416;28;20028;-50
2021/12/23 13:00:29;;;;;;;40.92;18.27;;;;;;;;;;5025551;28;20095;-46
2021/12/23 13:03:00;;;;;;;36.97;18.05;;;;;;;;;;5024538;28;20029;-47
2021/12/23 13:05:30;;;;;;;41.47;17.90;;;;;;;;;;5024281;28;20022;-50
2021/12/23 13:07:56;;;;;;;41.20;18.50;;;;;;;;;;5023739;28;20040;-51
2021/12/23 13:10:32;;;;;;;39.58;19.02;;;;;;;;;;5025311;28;20037;-48
2021/12/23 13:13:01;;;;;;;46.47;18.55;;;;;;;;;;5025377;28;20040;-49
2021/12/23 13:15:33;;;;;;;52.70;19.55;;;;;;;;;;5025877;28;20497;-51
2021/12/23 13:18:08;;;;;;;44.05;18.88;;;;;;;;;;5026267;28;20381;-50
2021/12/23 13:20:41;;;;;;;44.05;19.80;;;;;;;;;;5026324;28;20061;-51
2021/12/23 13:23:13;;;;;;;42.53;19.10;;;;;;;;;;5025679;28;20041;-48
2021/12/23 13:25:45;;;;;;;50.00;19.03;;;;;;;;;;5026184;28;20040;-50
2021/12/23 13:28:17;;;;;;;46.80;19.15;;;;;;;;;;5026517;28;20037;-51
2021/12/23 13:30:43;;;;;;;42.33;19.87;;;;;;;;;;5024546;28;20508;-49
2021/12/23 13:33:12;;;;;;;44.70;20.10;;;;;;;;;;5024550;28;20049;-53
2021/12/23 13:35:38;;;;;;;50.53;21.05;;;;;;;;;;5007841;28;20041;-47
2021/12/23 13:38:04;;;;;;;44.78;20.75;;;;;;;;;;5023360;28;20026;-48
2021/12/23 13:40:37;;;;;;;51.97;21.05;;;;;;;;;;5024783;28;20029;-50
2021/12/23 13:43:02;;;;;;;44.80;20.10;;;;;;;;;;5024823;28;20029;-47
2021/12/23 13:45:30;;;;;;;43.53;19.15;;;;;;;;;;5027358;28;20421;-50
2021/12/23 13:47:57;;;;;;;44.10;20.25;;;;;;;;;;5025679;28;20033;-51
2021/12/23 13:50:24;;;;;;;38.92;19.05;;;;;;;;;;5026131;28;20025;-45
2021/12/23 13:52:51;;;;;;;43.13;19.80;;;;;;;;;;5024637;28;20037;-50
2021/12/23 13:55:20;;;;;;;52.75;20.85;;;;;;;;;;5025266;28;20477;-48
2021/12/23 13:57:52;;;;;;;46.85;21.13;;;;;;;;;;5024637;28;20030;-46
2021/12/23 14:00:28;;;;;;;42.08;20.17;;;;;;;;;;5028071;28;20525;-49
2021/12/23 14:03:12;;;;;;;43.10;19.52;;;;;;;;;;5025294;28;20033;-46
2021/12/23 14:05:40;;;;;;;;;;;;;;;;;;5025146;28;20058;-44
2021/12/23 14:08:06;;;;;;;41.08;18.80;;;;;;;;;;5011111;28;19921;-51
2021/12/23 14:10:33;;;;;;;45.08;20.50;;;;;;;;;;5021517;28;20087;-49
2021/12/23 14:13:01;;;;;;;44.92;19.77;;;;;;;;;;5023692;28;20025;-53
2021/12/23 14:15:31;;;;;;;41.17;19.55;;;;;;;;;;5023302;28;20048;-50
2021/12/23 14:18:00;;;;;;;40.70;18.98;;;;;;;;;;5024290;28;20056;-51
2021/12/23 14:23:35;;;;;;;42.30;19.00;;;;;;;;;;5024086;28;20052;-47
2021/12/23 14:26:04;;;;;;;48.25;19.77;;;;;;;;;;5043403;28;20433;-46
2021/12/23 14:28:43;;;;;;;39.67;19.05;;;;;;;;;;5023147;28;20052;-46
2021/12/23 14:31:12;;;;;;;42.33;18.80;;;;;;;;;;5024517;28;20036;-47
2021/12/23 14:33:47;;;;;;;42.30;19.85;;;;;;;;;;5025350;28;20037;-49
2021/12/23 14:36:22;;;;;;;44.40;19.42;;;;;;;;;;5026264;28;20112;-50
2021/12/23 14:39:06;;;;;;;41.72;20.27;;;;;;;;;;5025003;28;20036;-49
2021/12/23 14:41:52;;;;;;;45.40;20.15;;;;;;;;;;5022125;28;20061;-52
2021/12/23 14:44:23;;;;;;;44.65;20.52;;;;;;;;;;5006889;28;20057;-47
2021/12/23 14:46:57;;;;;;;40.47;19.95;;;;;;;;;;5024507;28;20047;-50
2021/12/23 14:52:13;;;;;;;44.75;19.27;;;;;;;;;;5024862;28;20124;-47
2021/12/23 14:54:57;;;;;;;43.90;19.35;;;;;;;;;;5022131;28;20575;-44
2021/12/23 14:57:28;;;;;;;40.42;18.83;;;;;;;;;;5025121;28;20033;-46
2021/12/23 15:00:00;;;;;;;39.92;19.52;;;;;;;;;;5025539;28;20044;-47
2021/12/23 15:02:29;;;;;;;42.65;19.48;;;;;;;;;;5024963;28;20064;-48
2021/12/23 15:05:19;;;;;;;45.33;19.77;;;;;;;;;;5023735;28;20037;-48
2021/12/23 15:07:54;;;;;;;46.15;20.60;;;;;;;;;;5023625;28;20029;-51
2021/12/23 15:10:32;;;;;;;41.45;19.17;;;;;;;;;;5023749;28;20404;-48
2021/12/23 15:12:59;;;;;;;45.22;20.08;;;;;;;;;;5025143;28;20192;-51
2021/12/23 15:15:32;;;;;;;47.35;19.95;;;;;;;;;;5024176;28;20563;-49
2021/12/23 15:18:11;;;;;;;39.58;19.65;;;;;;;;;;5023008;28;20065;-48
2021/12/23 15:20:40;;;;;;;44.20;19.33;;;;;;;;;;5022631;28;20044;-46
2021/12/23 15:23:05;;;;;;;40.58;18.92;;;;;;;;;;5023171;28;20041;-50
2021/12/23 15:25:37;;;;;;;38.10;19.55;;;;;;;;;;5024337;28;20037;-46
2021/12/23 15:28:05;;;;;;;42.05;20.13;;;;;;;;;;5023528;28;20497;-49
2021/12/23 15:30:32;;;;;;;44.95;19.98;;;;;;;;;;5023802;28;20030;-48
2021/12/23 15:32:58;;;;;;;46.05;19.60;;;;;;;;;;5007870;28;20033;-48
2021/12/23 15:35:29;;;;;;;38.78;19.00;;;;;;;;;;5028688;28;20107;-46
2021/12/23 15:37:55;;;;;;;48.70;21.33;;;;;;;;;;5027207;28;20037;-48
2021/12/23 15:40:22;;;;;;;37.65;18.90;;;;;;;;;;5013218;28;20375;-47
2021/12/23 15:42:49;;;;;;;39.65;19.52;;;;;;;;;;5024878;28;20433;-46